Time;durP1;ratioP1;P1;durP2;ratioP2;P2;SDS_P1;SDS_P2;PMS_P1;PMS_P2;Temp;Humidity;BMP_temperature;BMP_pressure;BME280_temperature;BME280_humidity;BME280_pressure;Samples;Min_cycle;Max_cycle;Signal;HPM_P1;HPM_P2
2023/10/08 00:00:47;;;;;;;12.30;2.05;;;17.00;99.90;;;;;;5075021;28;19915;-75
2023/10/08 00:03:14;;;;;;;15.43;1.90;;;17.00;99.90;;;;;;5093160;28;20017;-75
2023/10/08 00:05:41;;;;;;;8.43;1.63;;;16.90;99.90;;;;;;5074925;28;20441;-75
2023/10/08 00:08:11;;;;;;;11.55;1.42;;;16.90;99.90;;;;;;5093153;28;20464;-75
2023/10/08 00:10:44;;;;;;;6.05;1.00;;;16.90;99.90;;;;;;5093077;28;20076;-75
2023/10/08 00:13:15;;;;;;;9.90;1.90;;;16.90;99.90;;;;;;5075012;28;20024;-75
2023/10/08 00:15:52;;;;;;;12.38;2.13;;;16.90;99.90;;;;;;5095759;28;20027;-75
2023/10/08 00:18:22;;;;;;;16.35;2.15;;;16.90;99.90;;;;;;5079184;28;20023;-75
2023/10/08 00:20:54;;;;;;;19.77;3.38;;;16.90;99.90;;;;;;5079033;28;20414;-75
2023/10/08 00:23:21;;;;;;;8.35;1.02;;;16.80;99.90;;;;;;5097448;28;20054;-76
2023/10/08 00:25:50;;;;;;;19.60;2.30;;;16.80;99.90;;;;;;5078781;28;20020;-75
2023/10/08 00:28:17;;;;;;;12.98;2.22;;;16.80;99.90;;;;;;5078862;28;20020;-76
2023/10/08 00:30:44;;;;;;;13.90;1.90;;;16.80;99.90;;;;;;5078668;28;20035;-76
2023/10/08 00:33:11;;;;;;;13.55;2.38;;;16.90;99.90;;;;;;5078782;28;20036;-76
2023/10/08 00:35:38;;;;;;;11.07;1.70;;;16.90;99.90;;;;;;5078746;28;20054;-76
2023/10/08 00:38:09;;;;;;;16.00;2.90;;;16.90;99.90;;;;;;5079042;28;20459;-76
2023/10/08 00:40:40;;;;;;;12.98;1.75;;;16.90;99.90;;;;;;5078836;28;20364;-76
2023/10/08 00:43:10;;;;;;;17.25;2.53;;;16.90;99.90;;;;;;5078542;28;20020;-76
2023/10/08 00:45:43;;;;;;;18.83;2.15;;;16.90;99.90;;;;;;5097223;28;20070;-76
2023/10/08 00:48:16;;;;;;;17.52;2.00;;;17.30;99.90;;;;;;5078581;28;20107;-76
2023/10/08 00:50:42;;;;;;;17.33;2.33;;;16.90;99.90;;;;;;5097256;28;20028;-76
2023/10/08 00:53:22;;;;;;;7.85;2.00;;;16.90;99.90;;;;;;5096864;28;20081;-76
2023/10/08 00:56:01;;;;;;;16.60;2.20;;;16.90;99.90;;;;;;5096843;28;20047;-77
2023/10/08 00:58:29;;;;;;;17.10;2.42;;;16.90;99.90;;;;;;5096848;28;20024;-76
2023/10/08 01:01:00;;;;;;;12.50;2.28;;;16.90;99.90;;;;;;5078392;28;20548;-76
2023/10/08 01:03:29;;;;;;;14.68;1.77;;;16.90;99.90;;;;;;5078410;28;20020;-76
2023/10/08 01:05:54;;;;;;;;;;;16.90;99.90;;;;;;5096940;28;20119;-76
2023/10/08 01:08:36;;;;;;;18.00;2.65;;;16.90;99.90;;;;;;5096491;28;19947;-76
2023/10/08 01:14:20;;;;;;;15.73;2.17;;;16.90;99.90;;;;;;5052163;28;20032;-77
2023/10/08 01:16:47;;;;;;;15.50;3.03;;;16.90;99.90;;;;;;5096874;28;20016;-77
2023/10/08 01:19:19;;;;;;;12.93;2.35;;;16.80;99.90;;;;;;5079000;28;20024;-77
2023/10/08 01:21:45;;;;;;;17.00;2.22;;;16.80;99.90;;;;;;5078641;28;20024;-77
2023/10/08 01:24:16;;;;;;;12.30;1.83;;;16.80;99.90;;;;;;5097034;28;20452;-77
2023/10/08 01:26:42;;;;;;;5.68;1.38;;;16.90;99.90;;;;;;5096187;28;20020;-77
2023/10/08 01:29:21;;;;;;;13.27;3.38;;;16.80;99.90;;;;;;5078714;28;20441;-77
2023/10/08 01:31:54;;;;;;;10.73;1.52;;;16.90;99.90;;;;;;5096985;28;20020;-77
2023/10/08 01:34:26;;;;;;;11.98;1.70;;;16.70;99.90;;;;;;5096871;28;20020;-77
2023/10/08 01:36:52;;;;;;;12.55;2.22;;;16.80;99.90;;;;;;5096772;28;20024;-77
2023/10/08 01:39:18;;;;;;;13.25;1.90;;;16.70;99.90;;;;;;5096687;28;20589;-77
2023/10/08 01:41:44;;;;;;;15.95;1.90;;;16.70;99.90;;;;;;5096387;28;20112;-77
2023/10/08 01:44:10;;;;;;;13.15;1.88;;;16.70;99.90;;;;;;5096629;28;20054;-77
2023/10/08 01:46:36;;;;;;;9.23;1.85;;;16.70;99.90;;;;;;5096303;28;20024;-77
2023/10/08 01:49:10;;;;;;;9.38;1.73;;;16.70;99.90;;;;;;5078265;28;20008;-77
2023/10/08 01:51:39;;;;;;;9.43;1.88;;;16.70;99.90;;;;;;5096387;28;20474;-77
2023/10/08 01:54:10;;;;;;;9.32;2.00;;;16.70;99.90;;;;;;5078244;28;20107;-75
2023/10/08 01:56:44;;;;;;;12.20;2.15;;;16.70;99.90;;;;;;5077308;28;20035;-75
2023/10/08 01:59:11;;;;;;;13.40;1.92;;;16.80;99.90;;;;;;5095533;28;20084;-75
2023/10/08 02:01:38;;;;;;;11.80;2.05;;;16.70;99.90;;;;;;5077293;28;20027;-75
2023/10/08 02:04:07;;;;;;;13.45;1.98;;;16.60;99.90;;;;;;5095478;28;20012;-75
2023/10/08 02:06:33;;;;;;;10.75;2.22;;;16.70;99.90;;;;;;5095595;28;20024;-75
2023/10/08 02:08:58;;;;;;;15.45;2.15;;;17.10;99.90;;;;;;5095806;28;20390;-75
2023/10/08 02:11:27;;;;;;;12.05;3.50;;;16.60;99.90;;;;;;5095370;28;20038;-75
2023/10/08 02:13:52;;;;;;;18.02;3.58;;;16.60;99.90;;;;;;5095337;28;20537;-75
2023/10/08 02:16:19;;;;;;;14.02;2.58;;;16.70;99.90;;;;;;5077040;28;20028;-75
2023/10/08 02:18:46;;;;;;;11.32;1.80;;;16.60;99.90;;;;;;5077094;28;20088;-75
2023/10/08 02:21:11;;;;;;;12.48;2.50;;;16.60;99.90;;;;;;5095667;28;20024;-75
2023/10/08 02:23:37;;;;;;;15.63;2.70;;;16.60;99.90;;;;;;5095725;28;20013;-75
2023/10/08 02:26:02;;;;;;;9.05;2.25;;;16.60;99.90;;;;;;5076867;28;20013;-75
2023/10/08 02:28:28;;;;;;;15.10;2.45;;;16.60;99.90;;;;;;5076884;28;20132;-75
2023/10/08 02:30:54;;;;;;;13.23;2.92;;;16.60;99.90;;;;;;5094851;28;20024;-75
2023/10/08 02:33:20;;;;;;;13.98;2.05;;;16.60;99.90;;;;;;5094617;28;20115;-76
2023/10/08 02:35:46;;;;;;;11.13;1.58;;;16.60;99.90;;;;;;5094454;28;20024;-75
2023/10/08 02:38:16;;;;;;;13.13;2.47;;;16.70;99.90;;;;;;5095153;28;20028;-75
2023/10/08 02:40:46;;;;;;;13.77;2.75;;;16.60;99.90;;;;;;5094729;28;20024;-75
2023/10/08 02:43:14;;;;;;;12.05;2.25;;;16.60;99.90;;;;;;5076350;28;20065;-75
2023/10/08 02:45:40;;;;;;;19.90;2.70;;;16.60;99.90;;;;;;5094506;28;20020;-75
2023/10/08 02:48:13;;;;;;;9.00;1.80;;;16.60;99.90;;;;;;5094483;28;20031;-75
2023/10/08 02:50:42;;;;;;;14.88;2.40;;;16.60;99.90;;;;;;5094329;28;20039;-75
2023/10/08 02:53:12;;;;;;;15.50;2.90;;;16.60;99.90;;;;;;5094304;28;20056;-75
2023/10/08 02:55:43;;;;;;;14.20;2.75;;;16.60;99.90;;;;;;5094342;28;20115;-75
2023/10/08 02:58:15;;;;;;;8.43;1.85;;;16.60;99.90;;;;;;5094261;28;20433;-75
2023/10/08 03:00:49;;;;;;;16.42;3.03;;;16.60;99.90;;;;;;5094186;28;20027;-75
2023/10/08 03:03:24;;;;;;;17.02;3.42;;;16.70;99.90;;;;;;5075850;28;20048;-75
2023/10/08 03:05:52;;;;;;;13.95;2.50;;;16.50;99.90;;;;;;5094028;28;20024;-75
2023/10/08 03:08:20;;;;;;;11.70;2.00;;;15.20;99.90;;;;;;5075758;28;20487;-76
2023/10/08 03:10:48;;;;;;;18.95;2.97;;;16.50;99.90;;;;;;5076244;28;20555;-75
2023/10/08 03:13:16;;;;;;;15.43;2.38;;;16.50;99.90;;;;;;5075834;28;20012;-75
2023/10/08 03:16:15;;;;;;;14.05;2.30;;;16.50;99.90;;;;;;5075456;28;20115;-75
2023/10/08 03:18:37;;;;;;;18.95;3.03;;;16.50;99.90;;;;;;5089968;28;20020;-76
2023/10/08 03:21:04;;;;;;;;;;;16.40;99.90;;;;;;5094669;28;20024;-75
2023/10/08 03:23:34;;;;;;;10.63;2.30;;;16.50;99.90;;;;;;5093783;28;19904;-75
2023/10/08 03:26:10;;;;;;;5.93;1.50;;;16.40;99.90;;;;;;5093654;28;20388;-75
2023/10/08 03:28:37;;;;;;;9.20;1.90;;;16.40;99.90;;;;;;5093669;28;20023;-75
2023/10/08 03:31:15;;;;;;;10.18;2.63;;;16.40;99.90;;;;;;5094215;28;20020;-75
2023/10/08 03:33:42;;;;;;;10.30;2.13;;;16.40;99.90;;;;;;5093547;28;20028;-75
2023/10/08 03:36:20;;;;;;;14.63;2.45;;;16.60;99.90;;;;;;5093535;28;20020;-75
2023/10/08 03:38:52;;;;;;;12.87;2.13;;;16.40;99.90;;;;;;5093653;28;20483;-75
2023/10/08 03:41:30;;;;;;;11.25;2.47;;;16.40;99.90;;;;;;5093473;28;20473;-75
2023/10/08 03:44:05;;;;;;;13.52;1.88;;;16.30;99.90;;;;;;5093535;28;20456;-75
2023/10/08 03:46:34;;;;;;;11.15;1.95;;;16.30;99.90;;;;;;5075328;28;20020;-75
2023/10/08 03:49:04;;;;;;;13.48;2.75;;;16.60;99.90;;;;;;5074899;28;20012;-75
2023/10/08 03:51:38;;;;;;;19.15;3.20;;;16.30;99.90;;;;;;5093272;28;20024;-75
2023/10/08 03:56:36;;;;;;;10.38;1.77;;;16.30;99.90;;;;;;5093286;28;20126;-75
2023/10/08 03:59:20;;;;;;;13.82;3.50;;;16.30;99.90;;;;;;5093274;28;20067;-75
2023/10/08 04:01:49;;;;;;;8.48;2.17;;;16.30;99.90;;;;;;5075139;28;20532;-75
2023/10/08 04:04:15;;;;;;;9.52;2.30;;;16.80;99.90;;;;;;5093364;28;20020;-75
2023/10/08 04:06:54;;;;;;;12.25;2.22;;;16.40;99.90;;;;;;5093240;28;20016;-75
2023/10/08 04:11:56;;;;;;;10.68;2.05;;;16.30;99.90;;;;;;5093151;28;20107;-75
2023/10/08 04:14:24;;;;;;;8.45;3.50;;;16.40;99.90;;;;;;5093020;28;20031;-75
2023/10/08 04:16:51;;;;;;;6.03;2.37;;;16.30;99.90;;;;;;5074923;28;20444;-76
2023/10/08 04:19:21;;;;;;;12.73;3.72;;;16.30;99.90;;;;;;5075114;28;20615;-75
2023/10/08 04:21:53;;;;;;;15.98;3.78;;;16.40;99.90;;;;;;5092999;28;20544;-75
2023/10/08 04:24:27;;;;;;;19.77;4.05;;;16.40;99.90;;;;;;5093477;28;20490;-75
2023/10/08 04:26:56;;;;;;;18.65;4.10;;;16.40;99.90;;;;;;5074899;28;20024;-75
2023/10/08 04:29:22;;;;;;;14.55;3.30;;;16.40;99.90;;;;;;5074816;28;20032;-75
2023/10/08 04:31:54;;;;;;;17.75;3.67;;;16.50;99.90;;;;;;5075719;28;20035;-75
2023/10/08 04:34:23;;;;;;;13.93;3.17;;;16.50;99.90;;;;;;5075229;28;20028;-75
2023/10/08 04:36:57;;;;;;;11.93;2.85;;;16.40;99.90;;;;;;5092888;28;20031;-75
2023/10/08 04:39:26;;;;;;;16.95;3.97;;;16.30;99.90;;;;;;5092967;28;20483;-75
2023/10/08 04:41:58;;;;;;;;;;;16.30;99.90;;;;;;5093398;28;20020;-75
2023/10/08 04:44:25;;;;;;;6.47;1.95;;;16.20;99.90;;;;;;5074697;28;19904;-76
2023/10/08 04:46:52;;;;;;;17.27;2.38;;;16.10;99.90;;;;;;5074828;28;20017;-76
2023/10/08 04:51:45;;;;;;;12.05;2.38;;;16.50;99.90;;;;;;5093295;28;20041;-76
2023/10/08 04:54:18;;;;;;;13.23;2.72;;;15.90;99.90;;;;;;5074980;28;20026;-76
2023/10/08 04:56:44;;;;;;;13.32;2.45;;;15.90;99.90;;;;;;5092741;28;20119;-76
2023/10/08 04:59:13;;;;;;;13.70;2.47;;;15.90;99.90;;;;;;5074698;28;20054;-76
2023/10/08 05:01:47;;;;;;;13.40;2.17;;;15.80;99.90;;;;;;5093579;28;20032;-76
2023/10/08 05:04:27;;;;;;;8.35;1.35;;;15.80;99.90;;;;;;5096911;28;20379;-75
2023/10/08 05:07:16;;;;;;;17.75;2.30;;;15.70;99.90;;;;;;5078347;28;20023;-75
2023/10/08 05:20:30;;;;;;;12.77;0.85;;;15.50;99.90;;;;;;5096403;28;20584;-76
2023/10/08 05:23:05;;;;;;;7.57;0.80;;;15.40;99.90;;;;;;5096799;28;20380;-76
2023/10/08 05:25:57;;;;;;;5.45;0.88;;;15.40;99.90;;;;;;5096284;28;20476;-76
2023/10/08 05:28:25;;;;;;;6.82;1.10;;;15.30;99.90;;;;;;5078112;28;20024;-76
2023/10/08 05:31:11;;;;;;;6.50;0.55;;;15.30;99.90;;;;;;5077996;28;20020;-75
2023/10/08 05:34:33;;;;;;;6.68;0.85;;;15.30;99.90;;;;;;5077894;28;20480;-75
2023/10/08 05:42:12;;;;;;;12.75;1.27;;;15.20;99.90;;;;;;5095963;28;20132;-76
2023/10/08 05:44:40;;;;;;;2.88;0.32;;;15.10;99.90;;;;;;5096706;28;20111;-76
2023/10/08 05:47:22;;;;;;;6.53;1.25;;;15.10;99.90;;;;;;5096383;28;20417;-75
2023/10/08 05:52:50;;;;;;;4.60;0.30;;;15.10;99.90;;;;;;5057628;28;20043;-76
2023/10/08 05:55:25;;;;;;;7.00;0.60;;;15.00;99.90;;;;;;5077416;28;20036;-76
2023/10/08 05:58:24;;;;;;;4.38;0.65;;;14.90;99.90;;;;;;5077509;28;20478;-76
2023/10/08 06:14:36;;;;;;;5.30;0.55;;;14.80;99.90;;;;;;5095764;28;20054;-76
2023/10/08 06:17:13;;;;;;;9.25;0.82;;;14.70;99.90;;;;;;5095443;28;20095;-76
2023/10/08 06:19:39;;;;;;;7.82;0.65;;;14.70;99.90;;;;;;5095123;28;20056;-76
2023/10/08 06:22:05;;;;;;;5.80;0.40;;;14.70;99.90;;;;;;5076962;28;20111;-75
2023/10/08 06:24:33;;;;;;;6.60;0.93;;;14.60;99.90;;;;;;5095409;28;20117;-75
2023/10/08 06:27:04;;;;;;;4.05;0.35;;;14.60;99.90;;;;;;5076880;28;20039;-75
2023/10/08 06:29:31;;;;;;;7.18;0.82;;;14.60;99.90;;;;;;5095374;28;20460;-75
2023/10/08 06:32:01;;;;;;;3.92;0.30;;;14.50;99.90;;;;;;5076832;28;20107;-75
2023/10/08 06:34:28;;;;;;;3.20;0.25;;;14.40;99.90;;;;;;5077109;28;20054;-76
2023/10/08 06:36:54;;;;;;;7.07;0.93;;;14.40;99.90;;;;;;5094731;28;20058;-75
2023/10/08 06:39:33;;;;;;;3.88;1.20;;;14.40;99.90;;;;;;5094671;28;20016;-76
2023/10/08 06:42:00;;;;;;;9.27;1.05;;;14.40;99.90;;;;;;5076528;28;20031;-75
2023/10/08 06:44:27;;;;;;;6.35;0.50;;;14.40;99.90;;;;;;5094571;28;20020;-75
2023/10/08 06:46:54;;;;;;;4.80;0.30;;;14.40;99.90;;;;;;5076195;28;20023;-76
2023/10/08 06:49:23;;;;;;;3.75;0.10;;;14.40;99.90;;;;;;5076816;28;20020;-76
2023/10/08 06:51:50;;;;;;;3.60;0.10;;;14.40;99.90;;;;;;5094482;28;20486;-76
2023/10/08 06:54:17;;;;;;;10.93;0.75;;;14.40;99.90;;;;;;5094182;28;20479;-76
2023/10/08 06:56:46;;;;;;;3.65;0.43;;;14.30;99.90;;;;;;5076401;28;20035;-76
2023/10/08 06:59:13;;;;;;;3.13;0.55;;;14.30;99.90;;;;;;5076236;28;20024;-75
2023/10/08 07:01:38;;;;;;;8.40;0.40;;;14.30;99.90;;;;;;5094628;28;20028;-75
2023/10/08 07:04:12;;;;;;;3.58;0.20;;;14.30;99.90;;;;;;5075941;28;20024;-76
2023/10/08 07:06:39;;;;;;;0.85;0.00;;;14.30;99.90;;;;;;5076042;28;20032;-75
2023/10/08 07:09:06;;;;;;;6.60;0.38;;;14.50;99.90;;;;;;5094228;28;20394;-76
2023/10/08 07:11:39;;;;;;;0.65;0.00;;;14.30;99.90;;;;;;5094037;28;20016;-76
2023/10/08 07:14:05;;;;;;;4.22;0.63;;;14.50;99.90;;;;;;5094094;28;20035;-76
2023/10/08 07:16:31;;;;;;;4.22;0.30;;;14.40;99.90;;;;;;5093779;28;20111;-76
2023/10/08 07:19:15;;;;;;;4.60;0.10;;;14.40;99.90;;;;;;5093836;28;20069;-76
2023/10/08 07:21:44;;;;;;;2.65;0.30;;;14.40;99.90;;;;;;5094024;28;20476;-76
2023/10/08 07:24:15;;;;;;;;;;;14.50;99.90;;;;;;5075870;28;20016;-76
2023/10/08 07:26:46;;;;;;;1.17;0.00;;;14.60;99.90;;;;;;5093797;28;19904;-75
2023/10/08 07:29:12;;;;;;;3.10;0.10;;;14.60;99.90;;;;;;5093733;28;20019;-75
2023/10/08 07:31:43;;;;;;;3.55;0.50;;;14.70;99.90;;;;;;5093785;28;20032;-75
2023/10/08 07:34:18;;;;;;;3.75;0.22;;;14.70;99.90;;;;;;5094403;28;20125;-76
2023/10/08 07:36:51;;;;;;;0.73;0.00;;;14.70;99.90;;;;;;5075372;28;20494;-75
2023/10/08 07:39:35;;;;;;;3.42;0.55;;;14.70;99.90;;;;;;5093739;28;20107;-75
2023/10/08 07:42:08;;;;;;;2.28;0.03;;;15.30;99.90;;;;;;5093588;28;20394;-75
2023/10/08 07:44:38;;;;;;;6.47;1.02;;;15.00;99.90;;;;;;5075309;28;20024;-75
2023/10/08 07:47:05;;;;;;;1.90;0.00;;;14.90;99.90;;;;;;5075342;28;20023;-75
2023/10/08 07:49:31;;;;;;;2.75;0.05;;;15.00;99.90;;;;;;5075255;28;20397;-75
2023/10/08 07:51:59;;;;;;;3.70;0.47;;;15.20;99.90;;;;;;5093397;28;20020;-75
2023/10/08 07:54:28;;;;;;;0.00;0.00;;;15.20;99.90;;;;;;5093718;28;20021;-75
2023/10/08 07:57:00;;;;;;;2.50;0.90;;;15.20;99.90;;;;;;5075233;28;20085;-74
2023/10/08 07:59:32;;;;;;;1.10;0.00;;;15.20;99.90;;;;;;5093233;28;20016;-75
2023/10/08 08:02:00;;;;;;;1.85;0.00;;;15.10;99.90;;;;;;5093290;28;20559;-76
2023/10/08 08:04:32;;;;;;;0.85;0.00;;;15.10;99.90;;;;;;5093757;28;20020;-75
2023/10/08 08:07:01;;;;;;;1.55;0.00;;;15.10;99.90;;;;;;5093829;28;20016;-76
2023/10/08 08:09:27;;;;;;;0.63;0.00;;;15.10;99.90;;;;;;5093807;28;20020;-75
2023/10/08 08:11:57;;;;;;;0.47;0.00;;;15.10;99.90;;;;;;5093338;28;20027;-76
2023/10/08 08:14:24;;;;;;;3.45;0.28;;;15.20;99.90;;;;;;5093282;28;20028;-75
2023/10/08 08:16:50;;;;;;;2.13;0.00;;;15.30;99.90;;;;;;5093220;28;20467;-75
2023/10/08 08:19:17;;;;;;;0.08;0.00;;;15.40;99.90;;;;;;5075040;28;20372;-76
2023/10/08 08:21:46;;;;;;;0.22;0.00;;;15.50;99.90;;;;;;5093119;28;20024;-75
2023/10/08 08:24:13;;;;;;;2.53;0.20;;;15.50;99.90;;;;;;5093060;28;20468;-75
2023/10/08 08:27:01;;;;;;;2.08;0.00;;;15.60;99.90;;;;;;5075755;28;20073;-76
2023/10/08 08:29:27;;;;;;;0.25;0.00;;;15.70;99.90;;;;;;5093066;28;20016;-76
2023/10/08 08:31:53;;;;;;;0.50;0.00;;;15.90;99.90;;;;;;5093116;28;20103;-76
2023/10/08 08:34:19;;;;;;;0.47;0.00;;;15.90;99.90;;;;;;5093546;28;20024;-76
2023/10/08 08:36:48;;;;;;;1.75;0.10;;;16.10;99.90;;;;;;5077654;28;20028;-76
2023/10/08 08:39:28;;;;;;;2.35;0.45;;;16.00;99.90;;;;;;5097019;28;20027;-76
2023/10/08 08:41:59;;;;;;;0.00;0.00;;;16.00;99.90;;;;;;5078834;28;20024;-76
2023/10/08 08:44:29;;;;;;;0.40;0.10;;;16.00;99.90;;;;;;5097342;28;20020;-76
2023/10/08 08:46:58;;;;;;;2.92;0.20;;;16.00;99.90;;;;;;5096874;28;20058;-76
2023/10/08 08:49:25;;;;;;;2.67;0.68;;;16.00;99.90;;;;;;5078775;28;20460;-76
2023/10/08 08:51:55;;;;;;;1.50;0.00;;;16.00;99.90;;;;;;5097356;28;20103;-76
2023/10/08 08:54:21;;;;;;;0.95;0.10;;;16.20;99.90;;;;;;5097149;28;20035;-76
2023/10/08 08:56:48;;;;;;;0.32;0.00;;;16.10;99.90;;;;;;5078692;28;20020;-76
2023/10/08 08:59:14;;;;;;;1.33;0.22;;;16.10;99.90;;;;;;5096748;28;20395;-75
2023/10/08 09:01:41;;;;;;;0.47;0.20;;;16.20;99.90;;;;;;5096614;28;20489;-76
2023/10/08 09:04:08;;;;;;;0.93;0.30;;;16.20;99.90;;;;;;5078906;28;20136;-76
2023/10/08 09:06:37;;;;;;;0.68;0.10;;;16.20;99.90;;;;;;5096366;28;20448;-76
2023/10/08 09:09:22;;;;;;;2.58;0.20;;;16.20;99.90;;;;;;5096413;28;20438;-76
2023/10/08 09:11:57;;;;;;;3.85;0.10;;;16.30;99.90;;;;;;5097112;28;20051;-76
2023/10/08 09:14:26;;;;;;;0.57;0.05;;;16.40;99.90;;;;;;5078262;28;20024;-76
2023/10/08 09:16:54;;;;;;;3.40;0.10;;;16.50;99.90;;;;;;5096465;28;20055;-76
2023/10/08 09:19:22;;;;;;;1.45;0.10;;;16.60;99.90;;;;;;5096345;28;20107;-76
2023/10/08 09:22:08;;;;;;;0.73;0.13;;;16.70;99.90;;;;;;5096226;28;20024;-76
2023/10/08 09:24:39;;;;;;;1.65;0.25;;;16.80;99.90;;;;;;5096220;28;20028;-76
2023/10/08 09:27:13;;;;;;;0.88;0.08;;;16.80;99.90;;;;;;5096724;28;20024;-76
2023/10/08 09:29:42;;;;;;;12.18;0.75;;;16.90;99.90;;;;;;5078041;28;20016;-76
2023/10/08 09:32:10;;;;;;;0.52;0.00;;;17.00;99.90;;;;;;5077857;28;20407;-76
2023/10/08 09:34:36;;;;;;;1.15;0.20;;;17.10;99.90;;;;;;5095939;28;20054;-76
2023/10/08 09:37:02;;;;;;;4.35;0.10;;;17.00;99.90;;;;;;5096159;28;20024;-76
2023/10/08 09:39:33;;;;;;;1.25;0.03;;;17.10;99.90;;;;;;5095995;28;20157;-75
2023/10/08 09:42:02;;;;;;;1.27;0.35;;;17.10;99.90;;;;;;5095954;28;20028;-76
2023/10/08 09:44:28;;;;;;;;;;;17.10;99.90;;;;;;5096202;28;20027;-75
2023/10/08 09:47:09;;;;;;;0.20;0.00;;;18.30;99.90;;;;;;5095383;28;20288;-76
2023/10/08 09:49:42;;;;;;;1.02;0.10;;;17.10;99.90;;;;;;5077560;28;20013;-76
2023/10/08 09:52:10;;;;;;;2.47;0.10;;;17.10;99.90;;;;;;5077146;28;20024;-76
2023/10/08 09:54:47;;;;;;;0.60;0.10;;;17.20;99.90;;;;;;5095156;28;20028;-76
2023/10/08 09:57:13;;;;;;;1.63;0.10;;;17.20;99.90;;;;;;5094698;28;20274;-76
2023/10/08 09:59:41;;;;;;;3.53;0.20;;;17.30;99.90;;;;;;5076771;28;20161;-76
2023/10/08 10:02:09;;;;;;;1.67;0.33;;;17.40;99.90;;;;;;5094920;28;20098;-76
2023/10/08 10:04:35;;;;;;;1.95;0.28;;;17.30;99.90;;;;;;5077249;28;20046;-76
2023/10/08 10:07:12;;;;;;;0.47;0.10;;;17.30;99.90;;;;;;5095503;28;20093;-76
2023/10/08 10:09:38;;;;;;;4.45;0.20;;;17.40;99.90;;;;;;5096018;28;20028;-76
2023/10/08 10:12:09;;;;;;;0.68;0.00;;;17.50;99.90;;;;;;5077219;28;20161;-76
2023/10/08 10:14:42;;;;;;;2.72;0.00;;;17.50;99.90;;;;;;5095174;28;20023;-76
2023/10/08 10:17:22;;;;;;;1.33;0.00;;;17.60;99.90;;;;;;5077175;28;20023;-75
2023/10/08 10:19:55;;;;;;;1.38;0.10;;;17.70;99.90;;;;;;5095168;28;20016;-75
2023/10/08 10:22:32;;;;;;;3.85;0.28;;;17.70;99.90;;;;;;5095018;28;20150;-75
2023/10/08 10:25:00;;;;;;;8.48;0.65;;;17.80;99.90;;;;;;5076908;28;20020;-75
2023/10/08 10:27:26;;;;;;;0.75;0.05;;;17.90;99.90;;;;;;5095020;28;20016;-75
2023/10/08 10:30:04;;;;;;;2.35;0.30;;;18.00;99.90;;;;;;5076803;28;20065;-75
2023/10/08 10:32:30;;;;;;;2.95;0.10;;;18.00;99.90;;;;;;5094948;28;20475;-75
2023/10/08 10:34:55;;;;;;;0.88;0.38;;;17.90;99.90;;;;;;5095221;28;20027;-75
2023/10/08 10:37:22;;;;;;;1.77;0.10;;;17.80;99.90;;;;;;5095346;28;20024;-75
2023/10/08 10:40:01;;;;;;;0.70;0.20;;;17.80;99.90;;;;;;5094663;28;20013;-75
2023/10/08 10:42:29;;;;;;;0.93;0.22;;;17.70;99.90;;;;;;5094666;28;20383;-76
2023/10/08 10:44:58;;;;;;;1.27;0.00;;;17.60;99.90;;;;;;5076573;28;20029;-75
2023/10/08 10:47:26;;;;;;;0.50;0.05;;;17.60;99.90;;;;;;5077039;28;20038;-76
2023/10/08 10:49:53;;;;;;;1.70;0.20;;;17.60;99.90;;;;;;5076268;28;20024;-76
2023/10/08 10:52:44;;;;;;;1.48;0.00;;;17.70;99.90;;;;;;5094439;28;20020;-75
2023/10/08 10:57:41;;;;;;;1.10;0.05;;;17.50;99.90;;;;;;5094615;28;20024;-75
2023/10/08 11:02:56;;;;;;;1.23;0.40;;;17.40;99.90;;;;;;5095119;28;20038;-75
2023/10/08 11:05:28;;;;;;;6.15;0.25;;;17.40;99.90;;;;;;5094220;28;20012;-75
2023/10/08 11:08:04;;;;;;;0.90;0.17;;;17.30;99.90;;;;;;5076018;28;20031;-75
2023/10/08 11:10:31;;;;;;;2.35;0.10;;;17.30;99.90;;;;;;5094152;28;20020;-75
2023/10/08 11:13:00;;;;;;;2.65;0.45;;;17.30;99.90;;;;;;5094077;28;20057;-75
2023/10/08 11:15:37;;;;;;;2.30;0.40;;;17.30;99.90;;;;;;5094107;28;20024;-75
2023/10/08 11:18:08;;;;;;;1.00;0.38;;;17.30;99.90;;;;;;5094687;28;20035;-75
2023/10/08 11:20:39;;;;;;;0.60;0.32;;;17.30;99.90;;;;;;5075757;28;20054;-75
2023/10/08 11:23:17;;;;;;;8.00;0.88;;;17.30;99.90;;;;;;5075684;28;20016;-75
2023/10/08 11:25:59;;;;;;;1.05;0.20;;;17.40;99.90;;;;;;5093926;28;20050;-75
2023/10/08 11:28:27;;;;;;;0.52;0.20;;;17.60;99.90;;;;;;5075785;28;20387;-75
2023/10/08 11:30:53;;;;;;;1.27;0.68;;;17.70;99.90;;;;;;5075765;28;20027;-75
2023/10/08 11:33:19;;;;;;;1.40;0.45;;;17.70;99.90;;;;;;5093880;28;20037;-75
2023/10/08 11:35:58;;;;;;;1.92;0.47;;;17.80;99.90;;;;;;5075623;28;20387;-75
2023/10/08 11:38:24;;;;;;;1.98;0.65;;;17.90;99.90;;;;;;5093634;28;20024;-75
2023/10/08 11:40:51;;;;;;;3.03;0.77;;;17.90;99.90;;;;;;5093634;28;20039;-76
2023/10/08 11:43:17;;;;;;;2.75;0.98;;;17.80;99.90;;;;;;5093726;28;20129;-76
2023/10/08 11:45:48;;;;;;;1.98;0.52;;;17.90;99.90;;;;;;5075284;28;20023;-76
2023/10/08 11:48:17;;;;;;;3.70;0.70;;;17.80;99.90;;;;;;5093544;28;20024;-75
2023/10/08 11:50:43;;;;;;;2.67;1.10;;;17.80;99.90;;;;;;5093399;28;20111;-76
2023/10/08 11:53:11;;;;;;;3.47;0.63;;;17.70;99.90;;;;;;5075314;28;20454;-75
2023/10/08 11:55:38;;;;;;;3.92;0.57;;;17.60;99.90;;;;;;5093256;28;20032;-75
2023/10/08 11:58:09;;;;;;;2.67;0.82;;;18.80;99.90;;;;;;5075208;28;20056;-75
2023/10/08 12:00:45;;;;;;;0.80;0.60;;;17.70;99.90;;;;;;5075001;28;20394;-76
2023/10/08 12:03:18;;;;;;;5.25;1.63;;;17.60;99.90;;;;;;5075080;28;20012;-76
2023/10/08 12:05:47;;;;;;;6.57;1.55;;;17.70;99.90;;;;;;5076004;28;20020;-75
2023/10/08 12:08:17;;;;;;;2.17;1.08;;;17.80;99.90;;;;;;5093305;28;20031;-75
2023/10/08 12:10:45;;;;;;;3.08;0.93;;;18.00;99.90;;;;;;5093523;28;20500;-75
2023/10/08 12:13:11;;;;;;;1.77;0.75;;;18.30;99.90;;;;;;5093920;28;20016;-76
2023/10/08 12:15:41;;;;;;;4.18;0.77;;;18.70;99.90;;;;;;5093158;28;20028;-78
2023/10/08 12:18:08;;;;;;;2.00;0.35;;;19.00;99.90;;;;;;5075024;28;20024;-76
2023/10/08 12:20:38;;;;;;;4.45;0.82;;;19.10;99.90;;;;;;5093058;28;20050;-75
2023/10/08 12:23:05;;;;;;;1.02;0.13;;;19.30;99.90;;;;;;5093094;28;20016;-75
2023/10/08 12:25:32;;;;;;;2.42;0.77;;;19.40;99.90;;;;;;5093033;28;20476;-75
2023/10/08 12:28:06;;;;;;;3.22;0.75;;;19.60;99.90;;;;;;5093263;28;20016;-75
2023/10/08 12:30:41;;;;;;;2.30;0.63;;;19.90;99.90;;;;;;5093006;28;20039;-75
2023/10/08 12:33:07;;;;;;;2.40;0.45;;;19.90;99.90;;;;;;5093220;28;20020;-76
2023/10/08 12:35:33;;;;;;;1.00;0.20;;;20.00;99.90;;;;;;5074905;28;20432;-75
2023/10/08 12:37:58;;;;;;;4.22;0.75;;;19.80;99.90;;;;;;5093022;28;20066;-75
2023/10/08 12:40:24;;;;;;;1.58;0.55;;;19.60;99.90;;;;;;5092958;28;20055;-75
2023/10/08 12:42:54;;;;;;;1.85;0.25;;;19.40;99.90;;;;;;5074783;28;20027;-76
2023/10/08 12:45:23;;;;;;;19.27;0.73;;;19.20;99.90;;;;;;5093134;28;20024;-76
2023/10/08 12:47:52;;;;;;;1.42;0.10;;;19.10;99.90;;;;;;5093449;28;20508;-75
2023/10/08 12:51:06;;;;;;;1.98;0.40;;;19.10;99.90;;;;;;5092879;28;20027;-76
2023/10/08 12:53:11;;;;;;;3.03;1.08;;;19.10;99.90;;;;;;5078594;28;20036;-75
2023/10/08 12:55:40;;;;;;;2.28;0.10;;;19.10;99.90;;;;;;5092701;28;20040;-76
2023/10/08 12:58:09;;;;;;;2.95;0.13;;;19.30;99.90;;;;;;5074688;28;20020;-75
2023/10/08 13:00:41;;;;;;;2.90;1.13;;;19.30;99.90;;;;;;5074488;28;20552;-75
2023/10/08 13:03:15;;;;;;;2.28;0.20;;;19.30;99.90;;;;;;5093485;28;20024;-75
2023/10/08 13:05:47;;;;;;;2.05;0.52;;;19.30;99.90;;;;;;5092693;28;20491;-75
2023/10/08 13:08:13;;;;;;;2.65;0.40;;;19.20;99.90;;;;;;5092708;28;20016;-75
2023/10/08 13:10:43;;;;;;;5.60;0.90;;;19.20;99.90;;;;;;5092710;28;20110;-76
2023/10/08 13:13:12;;;;;;;2.53;0.20;;;19.10;99.90;;;;;;5092718;28;20028;-75
2023/10/08 13:15:41;;;;;;;2.58;0.08;;;19.10;99.90;;;;;;5092633;28;20027;-75
2023/10/08 13:18:07;;;;;;;9.23;0.20;;;19.00;99.90;;;;;;5092634;28;20431;-75
2023/10/08 13:20:34;;;;;;;1.10;0.10;;;18.80;99.90;;;;;;5092585;28;20074;-75
2023/10/08 13:23:04;;;;;;;3.42;0.52;;;18.60;99.90;;;;;;5093858;28;20382;-76
2023/10/08 13:25:33;;;;;;;7.78;1.45;;;18.60;99.90;;;;;;5096514;28;20020;-76
2023/10/08 13:28:00;;;;;;;3.90;0.30;;;18.60;99.90;;;;;;5096131;28;20020;-76
2023/10/08 13:30:26;;;;;;;2.65;0.45;;;18.70;99.90;;;;;;5078044;28;20054;-75
2023/10/08 13:32:53;;;;;;;1.08;0.13;;;19.00;99.90;;;;;;5096664;28;20062;-75
2023/10/08 13:35:19;;;;;;;2.25;0.30;;;18.90;99.90;;;;;;5096009;28;20058;-75
2023/10/08 13:37:48;;;;;;;1.45;0.00;;;18.90;99.90;;;;;;5078140;28;20059;-76
2023/10/08 13:40:15;;;;;;;;;;;18.90;99.90;;;;;;5096374;28;20069;-76
2023/10/08 13:42:44;;;;;;;2.80;0.63;;;18.90;99.90;;;;;;5096051;28;19904;-76
2023/10/08 13:45:16;;;;;;;4.35;0.70;;;19.10;99.90;;;;;;5095854;28;20549;-75
2023/10/08 13:47:42;;;;;;;3.75;0.55;;;19.20;99.90;;;;;;5077764;28;20401;-75
2023/10/08 13:50:12;;;;;;;7.60;2.42;;;19.20;99.90;;;;;;5095865;28;20020;-76